Time;durP1;ratioP1;P1;durP2;ratioP2;P2;SDS_P1;SDS_P2;PMS_P1;PMS_P2;Temp;Humidity;BMP_temperature;BMP_pressure;BME280_temperature;BME280_humidity;BME280_pressure;Samples;Min_cycle;Max_cycle;Signal;HPM_P1;HPM_P2
2022/04/11 00:00:29;;;;;;;146.38;122.55;;;26.10;98.40;;;;;;4213746;28;20607;-70
2022/04/11 00:02:35;;;;;;;142.40;119.57;;;26.10;98.30;;;;;;4214029;28;20040;-70
2022/04/11 00:04:41;;;;;;;144.50;117.82;;;26.20;98.50;;;;;;4213782;28;20040;-69
2022/04/11 00:06:48;;;;;;;133.25;112.60;;;26.20;98.40;;;;;;4194657;28;20128;-70
2022/04/11 00:08:55;;;;;;;143.00;118.63;;;26.20;98.20;;;;;;4213097;28;20040;-70
2022/04/11 00:11:00;;;;;;;195.05;166.25;;;26.20;98.20;;;;;;4213122;28;20044;-70
2022/04/11 00:13:06;;;;;;;165.27;136.63;;;26.30;98.40;;;;;;4213360;28;20074;-70
2022/04/11 00:15:14;;;;;;;127.50;109.47;;;26.30;98.30;;;;;;4196381;28;20171;-70
2022/04/11 00:17:19;;;;;;;119.05;96.50;;;26.30;98.00;;;;;;4207624;28;20043;-69
2022/04/11 00:19:27;;;;;;;108.75;89.53;;;26.40;97.70;;;;;;4196289;28;20045;-70
2022/04/11 00:21:34;;;;;;;105.05;88.85;;;26.40;97.50;;;;;;4204607;28;20105;-70
2022/04/11 00:23:38;;;;;;;103.28;87.35;;;26.40;97.20;;;;;;4205077;28;20040;-70
2022/04/11 00:25:45;;;;;;;110.32;91.70;;;26.50;97.20;;;;;;4210956;28;20396;-70
2022/04/11 00:27:52;;;;;;;106.35;88.93;;;26.50;97.20;;;;;;4212350;28;20143;-70
2022/04/11 00:29:57;;;;;;;106.55;90.47;;;26.60;97.20;;;;;;4212096;28;20394;-70
2022/04/11 00:32:05;;;;;;;103.93;91.25;;;26.60;97.10;;;;;;4191003;28;20170;-70
2022/04/11 00:34:13;;;;;;;105.45;90.13;;;26.60;97.20;;;;;;4212960;28;20694;-70
2022/04/11 00:36:18;;;;;;;113.60;93.38;;;26.60;97.20;;;;;;4210273;28;20058;-72
2022/04/11 00:38:26;;;;;;;113.78;95.55;;;26.70;97.30;;;;;;4209864;28;20047;-69
2022/04/11 00:40:35;;;;;;;116.00;92.82;;;26.80;97.30;;;;;;4210499;28;20540;-69
2022/04/11 00:42:43;;;;;;;113.50;91.72;;;26.80;97.30;;;;;;4207049;28;20394;-70
2022/04/11 00:44:51;;;;;;;114.82;92.00;;;26.90;97.20;;;;;;4209382;28;20048;-69
2022/04/11 00:46:58;;;;;;;114.07;90.03;;;26.90;97.00;;;;;;4211003;28;20070;-69
2022/04/11 00:49:05;;;;;;;103.72;85.85;;;26.90;97.00;;;;;;4208360;28;20051;-69
2022/04/11 00:51:20;;;;;;;107.22;85.70;;;26.90;97.00;;;;;;4210141;28;20032;-70
2022/04/11 00:53:27;;;;;;;108.25;86.20;;;27.00;96.80;;;;;;4211082;28;20130;-70
2022/04/11 00:55:34;;;;;;;101.97;82.72;;;27.10;96.80;;;;;;4212003;28;20143;-70
2022/04/11 00:57:40;;;;;;;115.15;84.22;;;27.10;96.70;;;;;;4212800;28;20422;-70
2022/04/11 00:59:47;;;;;;;107.82;83.40;;;27.10;96.50;;;;;;4212957;28;20047;-71
2022/04/11 01:01:52;;;;;;;100.30;79.20;;;27.20;96.30;;;;;;4211207;28;20071;-70
2022/04/11 01:03:58;;;;;;;104.32;80.20;;;27.30;96.30;;;;;;4172056;28;20379;-70
2022/04/11 01:06:07;;;;;;;101.20;80.57;;;27.30;96.00;;;;;;4211744;28;20042;-69
2022/04/11 01:08:12;;;;;;;103.50;82.47;;;27.30;95.80;;;;;;4211255;28;20048;-69
2022/04/11 01:10:19;;;;;;;99.38;80.22;;;27.40;95.70;;;;;;4211154;28;20068;-70
2022/04/11 01:12:26;;;;;;;96.40;78.40;;;27.40;95.60;;;;;;4209854;28;20549;-69
2022/04/11 01:14:34;;;;;;;96.78;79.38;;;27.40;95.60;;;;;;4209969;28;20190;-69
2022/04/11 01:16:48;;;;;;;97.90;80.13;;;27.50;95.30;;;;;;4209851;28;20072;-67
2022/04/11 01:18:55;;;;;;;96.97;78.20;;;27.60;95.30;;;;;;4206857;28;20044;-68
2022/04/11 01:21:00;;;;;;;91.65;75.95;;;27.60;95.20;;;;;;4209434;28;20058;-70
2022/04/11 01:23:07;;;;;;;90.68;76.90;;;27.60;95.10;;;;;;4181299;28;20056;-69
2022/04/11 01:25:14;;;;;;;88.85;77.93;;;27.70;95.00;;;;;;4208926;28;20117;-71
2022/04/11 01:27:21;;;;;;;78.85;68.25;;;27.80;94.90;;;;;;4207915;28;20616;-69
2022/04/11 01:29:28;;;;;;;76.22;64.75;;;27.80;94.70;;;;;;4208967;28;20476;-72
2022/04/11 01:31:36;;;;;;;88.13;74.10;;;27.90;94.60;;;;;;4209792;28;20050;-70
2022/04/11 01:33:41;;;;;;;85.82;71.95;;;27.80;94.40;;;;;;4210292;28;20040;-69
2022/04/11 01:35:48;;;;;;;88.40;73.65;;;27.90;94.30;;;;;;4208776;28;20074;-69
2022/04/11 01:37:54;;;;;;;89.97;73.13;;;28.00;94.10;;;;;;4203745;28;20082;-70
2022/04/11 01:39:59;;;;;;;84.32;73.68;;;28.00;93.60;;;;;;4208457;28;20082;-70
2022/04/11 01:42:05;;;;;;;84.75;72.78;;;28.00;93.40;;;;;;4207474;28;20040;-70
2022/04/11 01:44:11;;;;;;;85.90;71.82;;;28.00;93.40;;;;;;4207458;28;20368;-71
2022/04/11 01:46:17;;;;;;;87.65;69.47;;;28.10;93.00;;;;;;4206656;28;20044;-71
2022/04/11 01:48:27;;;;;;;86.47;69.85;;;28.10;92.80;;;;;;4208507;28;20461;-71
2022/04/11 01:50:34;;;;;;;81.75;68.25;;;28.10;93.00;;;;;;4209017;28;20526;-70
2022/04/11 01:52:38;;;;;;;81.68;68.03;;;28.20;92.90;;;;;;4206135;28;20051;-71
2022/04/11 01:54:46;;;;;;;82.93;69.45;;;28.30;93.00;;;;;;4207808;28;20239;-69
2022/04/11 01:57:13;;;;;;;75.40;60.90;;;28.30;93.00;;;;;;4193619;28;20552;-70
2022/04/11 01:59:18;;;;;;;77.10;64.28;;;28.30;92.40;;;;;;4208645;28;20044;-70
2022/04/11 02:01:24;;;;;;;79.68;63.15;;;28.40;92.60;;;;;;4208400;28;20048;-70
2022/04/11 02:03:32;;;;;;;66.72;56.95;;;28.40;91.70;;;;;;4208322;28;20048;-70
2022/04/11 02:05:40;;;;;;;69.07;56.70;;;28.50;91.50;;;;;;4207270;28;20040;-70
2022/04/11 02:07:47;;;;;;;69.97;55.95;;;28.60;91.00;;;;;;4208904;28;20711;-70
2022/04/11 02:09:53;;;;;;;63.78;54.17;;;28.60;90.90;;;;;;4207552;28;20391;-69
2022/04/11 02:11:58;;;;;;;65.88;53.30;;;28.70;90.80;;;;;;4210909;28;20097;-70
2022/04/11 02:14:04;;;;;;;66.88;56.88;;;28.70;90.50;;;;;;4192999;28;20558;-69
2022/04/11 02:16:11;;;;;;;75.15;60.03;;;28.70;90.60;;;;;;4210057;28;20040;-69
2022/04/11 02:18:16;;;;;;;68.72;57.42;;;28.80;90.70;;;;;;4210080;28;20044;-70
2022/04/11 02:20:23;;;;;;;75.90;64.97;;;28.80;91.10;;;;;;4210873;28;20407;-69
2022/04/11 02:22:30;;;;;;;70.93;61.13;;;28.80;91.20;;;;;;4211969;28;20554;-69
2022/04/11 02:24:35;;;;;;;70.35;59.55;;;28.80;91.30;;;;;;4207884;28;20500;-69
2022/04/11 02:26:42;;;;;;;73.82;59.92;;;28.90;91.50;;;;;;4189485;28;20454;-69
2022/04/11 02:28:50;;;;;;;73.82;59.30;;;29.00;91.50;;;;;;4210083;28;20636;-70
2022/04/11 02:30:55;;;;;;;68.70;58.42;;;29.10;91.40;;;;;;4208377;28;20130;-66
2022/04/11 02:33:02;;;;;;;70.75;58.45;;;29.10;91.10;;;;;;4209476;28;20054;-69
2022/04/11 02:35:09;;;;;;;65.30;57.53;;;29.10;91.10;;;;;;4204703;28;20471;-69
2022/04/11 02:37:15;;;;;;;70.78;56.70;;;29.20;91.10;;;;;;4203375;28;20040;-69
2022/04/11 02:39:22;;;;;;;65.18;54.42;;;29.20;90.80;;;;;;4206881;28;20036;-69
2022/04/11 02:41:29;;;;;;;66.35;56.28;;;29.30;90.80;;;;;;4208637;28;20040;-70
2022/04/11 02:43:34;;;;;;;64.75;54.15;;;29.30;90.80;;;;;;4206238;28;20135;-70
2022/04/11 02:45:43;;;;;;;66.57;55.13;;;29.40;90.50;;;;;;4207827;28;20477;-70
2022/04/11 02:47:53;;;;;;;69.38;53.35;;;29.40;90.50;;;;;;4205384;28;20118;-70
2022/04/11 02:49:58;;;;;;;62.13;53.33;;;29.50;90.40;;;;;;4204608;28;20067;-69
2022/04/11 02:52:21;;;;;;;65.13;54.58;;;29.50;90.40;;;;;;4197612;28;20060;-69
2022/04/11 02:54:29;;;;;;;65.25;52.45;;;29.60;90.50;;;;;;4196246;28;20752;-71
2022/04/11 02:56:35;;;;;;;63.92;53.50;;;29.60;90.00;;;;;;4210954;28;20060;-70
2022/04/11 02:58:44;;;;;;;68.65;54.60;;;29.70;90.00;;;;;;4210030;28;20048;-70
2022/04/11 03:00:51;;;;;;;62.10;54.20;;;29.70;89.50;;;;;;4210040;28;20059;-68
2022/04/11 03:02:57;;;;;;;65.20;52.72;;;29.70;89.90;;;;;;4208955;28;20060;-69
2022/04/11 03:05:08;;;;;;;61.58;54.47;;;29.70;89.90;;;;;;4210142;28;20121;-70
2022/04/11 03:07:18;;;;;;;64.95;52.42;;;29.80;90.00;;;;;;4210410;28;20046;-70
2022/04/11 03:09:24;;;;;;;66.82;54.47;;;29.90;89.90;;;;;;4208956;28;20694;-69
2022/04/11 03:11:30;;;;;;;66.05;54.75;;;29.90;89.50;;;;;;4211059;28;20411;-69
2022/04/11 03:13:37;;;;;;;61.15;50.63;;;30.00;89.70;;;;;;4211897;28;20171;-68
2022/04/11 03:15:42;;;;;;;58.65;49.72;;;30.00;89.30;;;;;;4214134;28;20131;-69
2022/04/11 03:17:51;;;;;;;57.63;50.88;;;30.10;88.60;;;;;;4213623;28;20036;-69
2022/04/11 03:19:59;;;;;;;56.83;50.60;;;30.10;88.60;;;;;;4209120;28;20819;-69
2022/04/11 03:22:05;;;;;;;57.08;50.85;;;30.20;88.40;;;;;;4199616;28;20127;-69
2022/04/11 03:24:13;;;;;;;59.08;50.83;;;30.20;87.90;;;;;;4197693;28;20086;-69
2022/04/11 03:26:22;;;;;;;58.55;49.60;;;30.30;88.20;;;;;;4197592;28;20044;-70
2022/04/11 03:28:27;;;;;;;58.65;49.97;;;30.30;88.60;;;;;;4213727;28;20048;-69
2022/04/11 03:30:31;;;;;;;56.40;50.53;;;30.40;88.70;;;;;;4212337;28;20140;-69
2022/04/11 03:32:39;;;;;;;57.38;49.33;;;30.40;88.60;;;;;;4207626;28;20054;-70
2022/04/11 03:34:47;;;;;;;56.72;48.42;;;30.50;88.60;;;;;;4214091;28;20048;-69
2022/04/11 03:36:54;;;;;;;56.03;48.20;;;30.60;88.40;;;;;;4179776;28;20056;-69
2022/04/11 03:39:05;;;;;;;59.67;49.65;;;30.60;88.50;;;;;;4213756;28;20056;-69
2022/04/11 03:41:14;;;;;;;56.08;48.42;;;30.70;88.10;;;;;;4213108;28;20048;-69
2022/04/11 03:43:21;;;;;;;55.30;49.33;;;30.70;87.10;;;;;;4212683;28;20048;-69
2022/04/11 03:45:30;;;;;;;56.53;47.00;;;30.70;86.60;;;;;;4210523;28;20089;-69
2022/04/11 03:47:37;;;;;;;55.55;48.78;;;30.80;86.80;;;;;;4212756;28;20050;-69
2022/04/11 03:49:45;;;;;;;59.72;48.92;;;30.80;86.70;;;;;;4213834;28;20067;-68
2022/04/11 03:52:05;;;;;;;56.50;47.40;;;30.90;86.50;;;;;;4230344;28;20044;-69
2022/04/11 03:54:12;;;;;;;51.90;44.72;;;30.90;86.60;;;;;;4215252;28;20052;-69
2022/04/11 03:56:17;;;;;;;50.03;43.28;;;31.00;85.60;;;;;;4213664;28;20060;-69
2022/04/11 03:58:23;;;;;;;52.83;44.40;;;31.10;83.90;;;;;;4213691;28;20166;-68
2022/04/11 04:00:34;;;;;;;53.67;43.72;;;31.10;83.90;;;;;;4213964;28;20052;-69
2022/04/11 04:02:56;;;;;;;54.47;47.38;;;31.20;84.30;;;;;;4212960;28;20602;-68
2022/04/11 04:05:01;;;;;;;51.28;44.05;;;31.20;85.10;;;;;;4213680;28;20048;-68
2022/04/11 04:07:08;;;;;;;62.95;45.88;;;31.20;84.80;;;;;;4213495;28;20048;-68
2022/04/11 04:09:14;;;;;;;49.67;43.88;;;31.30;84.70;;;;;;4214374;28;20040;-69
2022/04/11 04:11:21;;;;;;;50.83;44.35;;;31.30;85.10;;;;;;4214788;28;20048;-68
2022/04/11 04:13:38;;;;;;;54.45;43.85;;;31.40;85.10;;;;;;4214664;28;20071;-69
2022/04/11 04:15:45;;;;;;;50.80;43.60;;;31.40;85.50;;;;;;4213551;28;20542;-68
2022/04/11 04:17:52;;;;;;;57.78;44.58;;;31.40;85.00;;;;;;4210002;28;20135;-69
2022/04/11 04:19:59;;;;;;;51.15;42.53;;;31.50;84.00;;;;;;4196528;28;20052;-68
2022/04/11 04:22:06;;;;;;;48.63;42.83;;;31.50;82.80;;;;;;4196874;28;20048;-68
2022/04/11 04:24:14;;;;;;;47.17;40.97;;;31.50;83.40;;;;;;4209555;28;20044;-69
2022/04/11 04:26:18;;;;;;;46.15;41.17;;;31.60;83.70;;;;;;4214272;28;20066;-69
2022/04/11 04:28:25;;;;;;;46.83;40.08;;;31.60;83.90;;;;;;4213121;28;20070;-68
2022/04/11 04:30:32;;;;;;;44.20;39.40;;;31.60;84.00;;;;;;4213137;28;20048;-69
2022/04/11 04:32:37;;;;;;;52.22;40.78;;;31.60;83.70;;;;;;4212607;28;20406;-70
2022/04/11 04:34:44;;;;;;;45.10;40.40;;;31.70;82.60;;;;;;4213488;28;20044;-68
2022/04/11 04:36:51;;;;;;;48.67;39.97;;;31.70;81.40;;;;;;4213442;28;20047;-69
2022/04/11 04:38:57;;;;;;;47.65;38.53;;;31.80;81.10;;;;;;4212870;28;20035;-70
2022/04/11 04:41:07;;;;;;;49.47;38.92;;;31.80;80.70;;;;;;4179479;28;20049;-70
2022/04/11 04:43:14;;;;;;;43.35;38.58;;;31.90;79.50;;;;;;4197514;28;20524;-68
2022/04/11 04:45:24;;;;;;;46.22;37.97;;;31.90;79.60;;;;;;4209730;28;20044;-69
2022/04/11 04:47:43;;;;;;;45.03;38.58;;;32.00;79.50;;;;;;4212406;28;20055;-67
2022/04/11 04:49:50;;;;;;;43.90;38.92;;;32.00;79.30;;;;;;4213330;28;20062;-68
2022/04/11 04:51:57;;;;;;;45.00;38.42;;;32.10;79.30;;;;;;4212902;28;20149;-68
2022/04/11 04:54:04;;;;;;;46.58;38.45;;;32.10;78.40;;;;;;4212636;28;20076;-68
2022/04/11 04:56:16;;;;;;;43.42;37.53;;;32.10;78.40;;;;;;4212471;28;20833;-68
2022/04/11 04:58:25;;;;;;;49.72;39.47;;;32.10;78.50;;;;;;4212834;28;20048;-68
2022/04/11 05:00:33;;;;;;;45.25;37.60;;;32.20;78.50;;;;;;4213662;28;20043;-68
2022/04/11 05:02:43;;;;;;;42.88;37.72;;;32.20;77.90;;;;;;4212519;28;20048;-68
2022/04/11 05:04:51;;;;;;;45.47;38.90;;;32.20;77.60;;;;;;4211922;28;20044;-68
2022/04/11 05:06:58;;;;;;;46.75;38.25;;;32.30;77.80;;;;;;4208670;28;20101;-69
2022/04/11 05:09:06;;;;;;;41.42;36.00;;;32.30;77.50;;;;;;4212425;28;20477;-68
2022/04/11 05:11:13;;;;;;;46.42;38.05;;;32.30;78.00;;;;;;4212634;28;20514;-69
2022/04/11 05:13:20;;;;;;;42.95;36.97;;;32.30;78.20;;;;;;4212930;28;20032;-68
2022/04/11 05:15:26;;;;;;;40.90;36.50;;;32.30;78.50;;;;;;4210900;28;20113;-68
2022/04/11 05:17:41;;;;;;;41.63;35.92;;;32.40;79.00;;;;;;4209614;28;20434;-68
2022/04/11 05:19:49;;;;;;;40.30;35.88;;;32.50;78.80;;;;;;4211653;28;20155;-68
2022/04/11 05:21:56;;;;;;;44.83;36.90;;;32.50;78.70;;;;;;4212044;28;20672;-69
2022/04/11 05:24:02;;;;;;;44.05;36.65;;;32.60;78.30;;;;;;4211601;28;20101;-69
2022/04/11 05:26:09;;;;;;;44.28;35.58;;;32.60;77.70;;;;;;4212382;28;20051;-68
2022/04/11 05:28:16;;;;;;;44.35;37.33;;;32.70;77.80;;;;;;4212146;28;20051;-69
2022/04/11 05:30:35;;;;;;;42.45;36.70;;;32.70;76.90;;;;;;4212306;28;20130;-68
2022/04/11 05:32:43;;;;;;;40.45;36.20;;;32.70;77.50;;;;;;4211606;28;20125;-67
2022/04/11 05:34:50;;;;;;;44.33;37.00;;;32.80;76.80;;;;;;4212258;28;20052;-68
2022/04/11 05:36:55;;;;;;;43.38;35.47;;;32.70;76.40;;;;;;4211867;28;20044;-69
2022/04/11 05:39:01;;;;;;;39.40;35.03;;;32.80;76.80;;;;;;4211824;28;20048;-67
2022/04/11 05:41:09;;;;;;;40.78;36.30;;;32.80;77.20;;;;;;4212139;28;20086;-68
2022/04/11 05:43:19;;;;;;;41.00;36.55;;;32.90;77.60;;;;;;4211860;28;20063;-67
2022/04/11 05:45:27;;;;;;;42.58;37.10;;;32.90;77.20;;;;;;4211449;28;20052;-68
2022/04/11 05:47:34;;;;;;;41.63;36.80;;;33.00;77.50;;;;;;4212127;28;20062;-68
2022/04/11 05:49:40;;;;;;;40.80;36.10;;;33.00;78.50;;;;;;4195426;28;20036;-68
2022/04/11 05:51:50;;;;;;;43.35;37.22;;;33.00;79.00;;;;;;4210473;28;20051;-68
2022/04/11 05:53:56;;;;;;;43.95;37.13;;;33.00;78.60;;;;;;4211132;28;20529;-67
2022/04/11 05:56:01;;;;;;;43.10;37.42;;;33.10;78.30;;;;;;4227186;28;20109;-68
2022/04/11 05:58:08;;;;;;;43.50;36.58;;;33.10;76.90;;;;;;4212636;28;20050;-67
2022/04/11 06:00:13;;;;;;;42.33;37.10;;;33.10;76.50;;;;;;4210945;28;20541;-67
2022/04/11 06:02:21;;;;;;;42.42;36.60;;;33.10;77.80;;;;;;4212510;28;20139;-68
2022/04/11 06:04:28;;;;;;;49.75;36.72;;;33.20;76.90;;;;;;4211635;28;20390;-68
2022/04/11 06:06:36;;;;;;;46.10;36.47;;;33.20;76.40;;;;;;4211256;28;20083;-68
2022/04/11 06:08:41;;;;;;;43.22;36.53;;;33.20;77.10;;;;;;4210856;28;20075;-68
2022/04/11 06:10:46;;;;;;;44.72;36.67;;;33.30;77.30;;;;;;4210551;28;20052;-69
2022/04/11 06:12:57;;;;;;;42.40;35.28;;;33.30;77.10;;;;;;4211038;28;20044;-68
2022/04/11 06:15:04;;;;;;;39.72;34.90;;;33.40;75.30;;;;;;4210843;28;20491;-68
2022/04/11 06:17:11;;;;;;;40.53;35.60;;;33.30;75.00;;;;;;4210378;28;20398;-69
2022/04/11 06:19:18;;;;;;;41.85;35.35;;;33.30;76.30;;;;;;4211018;28;20059;-67
2022/04/11 06:21:24;;;;;;;39.58;34.45;;;33.40;76.20;;;;;;4209820;28;20439;-67
2022/04/11 06:23:32;;;;;;;41.00;35.08;;;33.40;76.40;;;;;;4210448;28;20044;-69
2022/04/11 06:25:40;;;;;;;38.97;34.78;;;33.50;76.50;;;;;;4225133;28;20448;-67
2022/04/11 06:27:44;;;;;;;37.88;33.97;;;33.40;75.60;;;;;;4210856;28;20122;-68
2022/04/11 06:29:56;;;;;;;40.25;34.78;;;33.40;75.40;;;;;;4210940;28;20056;-68
2022/04/11 06:32:05;;;;;;;41.92;34.88;;;33.50;75.50;;;;;;4208288;28;20047;-68
2022/04/11 06:34:13;;;;;;;39.05;34.78;;;33.50;75.70;;;;;;4210019;28;20036;-69
2022/04/11 06:36:20;;;;;;;38.90;34.80;;;33.60;75.10;;;;;;4209186;28;20051;-69
2022/04/11 06:38:26;;;;;;;38.60;34.40;;;33.60;74.60;;;;;;4209917;28;20134;-68
2022/04/11 06:40:31;;;;;;;36.85;32.60;;;33.60;74.50;;;;;;4210733;28;20097;-68
2022/04/11 06:42:40;;;;;;;37.50;33.45;;;33.60;74.80;;;;;;4210543;28;20772;-68
2022/04/11 06:45:07;;;;;;;38.90;34.20;;;33.70;74.30;;;;;;4211434;28;20044;-67
2022/04/11 06:47:12;;;;;;;39.88;34.55;;;33.70;73.60;;;;;;4210409;28;20733;-68
2022/04/11 06:49:19;;;;;;;38.10;33.72;;;33.80;73.80;;;;;;4215187;28;20035;-68
2022/04/11 06:51:25;;;;;;;39.65;33.60;;;33.70;73.60;;;;;;4213484;28;20086;-68
2022/04/11 06:53:31;;;;;;;38.92;33.63;;;33.80;73.60;;;;;;4214120;28;20040;-68
2022/04/11 06:55:38;;;;;;;40.10;33.78;;;33.70;73.70;;;;;;4214860;28;20048;-68
2022/04/11 06:57:46;;;;;;;38.72;33.67;;;33.80;72.90;;;;;;4212895;28;20497;-68
2022/04/11 06:59:52;;;;;;;39.35;33.90;;;33.90;73.30;;;;;;4214894;28;20106;-68
2022/04/11 07:01:57;;;;;;;40.38;34.20;;;33.90;73.20;;;;;;4214519;28;20063;-67
2022/04/11 07:04:03;;;;;;;36.50;32.20;;;33.90;73.10;;;;;;4215105;28;20044;-67
2022/04/11 07:06:09;;;;;;;40.28;32.42;;;34.00;72.40;;;;;;4214209;28;20517;-69
2022/04/11 07:08:19;;;;;;;36.17;32.42;;;33.90;72.40;;;;;;4213919;28;20402;-68
2022/04/11 07:10:26;;;;;;;42.13;33.42;;;34.00;72.70;;;;;;4208940;28;20040;-68
2022/04/11 07:12:30;;;;;;;37.95;33.63;;;34.00;72.90;;;;;;4214155;28;20049;-68
2022/04/11 07:14:37;;;;;;;37.08;32.90;;;34.20;72.10;;;;;;4212510;28;20118;-68
2022/04/11 07:16:45;;;;;;;37.78;33.22;;;34.20;72.40;;;;;;4213671;28;20071;-68
2022/04/11 07:18:50;;;;;;;36.78;31.65;;;34.20;72.50;;;;;;4213617;28;20036;-69
2022/04/11 07:20:58;;;;;;;35.63;32.03;;;34.20;72.90;;;;;;4211598;28;20052;-68
2022/04/11 07:23:02;;;;;;;35.17;31.45;;;34.20;73.20;;;;;;4209133;28;20071;-68
2022/04/11 07:25:07;;;;;;;36.90;32.90;;;34.20;73.90;;;;;;4214023;28;20506;-68
2022/04/11 07:27:14;;;;;;;36.00;32.20;;;34.20;73.40;;;;;;4211855;28;20455;-68
2022/04/11 07:29:22;;;;;;;35.90;32.00;;;34.20;72.90;;;;;;4214499;28;20036;-68
2022/04/11 07:31:27;;;;;;;36.78;32.28;;;34.20;72.90;;;;;;4213898;28;20568;-69
2022/04/11 07:33:38;;;;;;;35.95;32.20;;;34.20;73.40;;;;;;4213122;28;20060;-68
2022/04/11 07:35:45;;;;;;;38.83;32.60;;;34.20;73.70;;;;;;4214159;28;20509;-69
2022/04/11 07:37:50;;;;;;;37.72;31.60;;;34.20;73.30;;;;;;4210666;28;20139;-69
2022/04/11 07:39:55;;;;;;;37.78;33.28;;;34.20;73.00;;;;;;4213575;28;20051;-69
2022/04/11 07:42:02;;;;;;;42.92;33.42;;;34.30;73.20;;;;;;4213473;28;20075;-66
2022/04/11 07:44:07;;;;;;;41.83;32.42;;;34.30;72.70;;;;;;4214336;28;20077;-68
2022/04/11 07:46:15;;;;;;;40.03;32.88;;;34.30;73.20;;;;;;4210708;28;20059;-69
2022/04/11 07:48:22;;;;;;;36.20;31.63;;;34.30;73.40;;;;;;4213801;28;20498;-68
2022/04/11 07:50:27;;;;;;;37.88;32.47;;;34.30;73.50;;;;;;4211633;28;20048;-68
2022/04/11 07:52:37;;;;;;;37.38;32.25;;;34.30;73.40;;;;;;4211814;28;20742;-69
2022/04/11 07:54:43;;;;;;;37.65;32.92;;;34.40;73.60;;;;;;4213859;28;20036;-70
2022/04/11 07:56:47;;;;;;;35.97;32.22;;;34.40;74.00;;;;;;4212153;28;20056;-68
2022/04/11 07:58:55;;;;;;;37.47;32.58;;;34.40;74.60;;;;;;4213822;28;20048;-69
2022/04/11 08:01:05;;;;;;;38.60;33.33;;;34.40;74.80;;;;;;4214666;28;20052;-69
2022/04/11 08:03:11;;;;;;;37.20;33.30;;;34.40;74.20;;;;;;4213015;28;20044;-68
2022/04/11 08:05:20;;;;;;;39.10;33.55;;;34.40;73.50;;;;;;4214942;28;20125;-68
2022/04/11 08:07:27;;;;;;;37.10;32.53;;;34.40;73.80;;;;;;4214889;28;20089;-69
2022/04/11 08:09:31;;;;;;;37.80;33.75;;;34.40;73.70;;;;;;4215088;28;20040;-66
2022/04/11 08:11:38;;;;;;;43.20;32.67;;;34.40;72.80;;;;;;4195735;28;20048;-69
2022/04/11 08:13:45;;;;;;;38.45;34.28;;;34.40;72.50;;;;;;4213946;28;20517;-68
2022/04/11 08:15:51;;;;;;;37.20;33.45;;;34.40;72.50;;;;;;4214375;28;20040;-68
2022/04/11 08:17:59;;;;;;;42.28;34.08;;;34.40;73.00;;;;;;4214422;28;20046;-69
2022/04/11 08:20:06;;;;;;;39.13;33.15;;;34.30;73.10;;;;;;4214520;28;20130;-69
2022/04/11 08:22:11;;;;;;;39.60;32.80;;;34.30;72.90;;;;;;4214005;28;20039;-68
2022/04/11 08:24:18;;;;;;;35.63;31.95;;;34.30;72.60;;;;;;4213859;28;20458;-69
2022/04/11 08:26:25;;;;;;;37.38;33.15;;;34.30;73.80;;;;;;4214289;28;20044;-68
2022/04/11 08:28:29;;;;;;;38.95;34.75;;;34.30;74.00;;;;;;4213592;28;20105;-69
2022/04/11 08:30:34;;;;;;;37.95;33.90;;;34.30;74.50;;;;;;4211160;28;20072;-69
2022/04/11 08:32:47;;;;;;;44.38;34.65;;;34.30;74.30;;;;;;4214029;28;20051;-69
2022/04/11 08:34:51;;;;;;;41.65;33.75;;;34.30;74.10;;;;;;4213662;28;20067;-68
2022/04/11 08:36:58;;;;;;;38.38;33.38;;;34.30;74.00;;;;;;4214578;28;20068;-69
2022/04/11 08:39:05;;;;;;;38.00;33.90;;;34.20;73.50;;;;;;4213984;28;20082;-68
2022/04/11 08:41:13;;;;;;;38.40;34.03;;;34.20;73.50;;;;;;4213771;28;20052;-69
2022/04/11 08:43:23;;;;;;;36.88;32.78;;;34.20;73.00;;;;;;4214380;28;20048;-70
2022/04/11 08:45:31;;;;;;;38.65;34.08;;;34.10;73.00;;;;;;4214245;28;20067;-71
2022/04/11 08:47:36;;;;;;;39.58;35.33;;;34.10;73.20;;;;;;4214301;28;20044;-69
2022/04/11 08:49:42;;;;;;;41.30;34.53;;;34.10;73.70;;;;;;4214195;28;20059;-69
2022/04/11 08:51:49;;;;;;;39.65;35.28;;;34.10;73.60;;;;;;4213482;28;20047;-68
2022/04/11 08:53:54;;;;;;;41.33;35.47;;;34.10;73.30;;;;;;4229414;28;20482;-69
2022/04/11 08:56:01;;;;;;;39.50;34.53;;;34.10;72.80;;;;;;4213579;28;20082;-68
2022/04/11 08:58:08;;;;;;;40.30;34.83;;;34.00;73.00;;;;;;4213864;28;20101;-69
2022/04/11 09:00:15;;;;;;;40.35;35.58;;;34.00;73.40;;;;;;4214169;28;20083;-67
2022/04/11 09:02:32;;;;;;;38.67;34.45;;;34.00;73.80;;;;;;4213288;28;20059;-68
2022/04/11 09:04:54;;;;;;;37.97;34.00;;;34.00;73.70;;;;;;4214166;28;20044;-68
2022/04/11 09:07:01;;;;;;;40.88;35.92;;;34.00;73.80;;;;;;4214126;28;20044;-69
2022/04/11 09:09:10;;;;;;;38.80;34.67;;;34.00;74.20;;;;;;4214324;28;20043;-69
2022/04/11 09:11:29;;;;;;;45.72;34.78;;;34.00;75.00;;;;;;4213247;28;20501;-70
2022/04/11 09:13:51;;;;;;;39.30;34.95;;;34.00;75.50;;;;;;4214020;28;20072;-69
2022/04/11 09:15:57;;;;;;;;;;;34.00;76.10;;;;;;4213943;28;20044;-70
2022/04/11 09:18:05;;;;;;;39.45;35.13;;;34.00;76.30;;;;;;4212970;28;20555;-69
2022/04/11 09:20:11;;;;;;;43.78;34.85;;;34.00;76.20;;;;;;4207770;28;20048;-69
2022/04/11 09:22:31;;;;;;;41.13;36.40;;;33.90;75.40;;;;;;4204706;28;20079;-69
2022/04/11 09:24:39;;;;;;;39.72;35.50;;;33.90;74.90;;;;;;4211158;28;20040;-69
2022/04/11 09:26:44;;;;;;;40.90;35.30;;;33.90;74.90;;;;;;4208173;28;20052;-69
2022/04/11 09:29:04;;;;;;;39.67;34.85;;;33.80;74.40;;;;;;4202581;28;20052;-69
2022/04/11 09:31:09;;;;;;;41.63;34.72;;;33.80;74.30;;;;;;4209429;28;20115;-69
2022/04/11 09:33:14;;;;;;;40.60;36.22;;;33.70;73.60;;;;;;4210788;28;20043;-69
2022/04/11 09:35:22;;;;;;;40.38;35.13;;;33.80;73.60;;;;;;4210538;28;20502;-69
2022/04/11 09:37:29;;;;;;;42.63;35.50;;;33.70;73.30;;;;;;4211098;28;20040;-69
2022/04/11 09:39:43;;;;;;;39.25;35.15;;;33.70;73.70;;;;;;4210937;28;20059;-68
2022/04/11 09:41:49;;;;;;;41.38;35.28;;;33.70;73.90;;;;;;4212326;28;20063;-69
2022/04/11 09:43:54;;;;;;;40.35;34.38;;;33.60;74.20;;;;;;4209567;28;20535;-69
2022/04/11 09:46:02;;;;;;;41.42;35.47;;;33.60;74.10;;;;;;4212540;28;20123;-69
2022/04/11 09:48:09;;;;;;;37.97;34.00;;;33.60;74.20;;;;;;4210928;28;20127;-69
2022/04/11 09:50:16;;;;;;;39.20;34.75;;;33.50;74.40;;;;;;4210240;28;20040;-69
2022/04/11 09:52:21;;;;;;;37.65;33.42;;;33.50;74.30;;;;;;4208770;28;20044;-69
2022/04/11 09:54:28;;;;;;;42.88;34.10;;;33.50;74.00;;;;;;4210542;28;20040;-69
2022/04/11 09:56:36;;;;;;;41.47;33.70;;;33.50;74.10;;;;;;4211766;28;20509;-69
2022/04/11 09:58:41;;;;;;;42.85;35.67;;;33.40;73.30;;;;;;4211712;28;20478;-69
2022/04/11 10:00:48;;;;;;;39.40;35.20;;;33.40;73.90;;;;;;4211315;28;20035;-69
2022/04/11 10:02:57;;;;;;;40.80;35.72;;;33.30;74.10;;;;;;4211707;28;20040;-69
2022/04/11 10:05:03;;;;;;;39.47;35.30;;;33.30;74.20;;;;;;4213395;28;20063;-69
2022/04/11 10:07:11;;;;;;;43.33;35.10;;;33.30;74.40;;;;;;4212964;28;20089;-69
2022/04/11 10:09:21;;;;;;;38.20;34.10;;;33.30;74.70;;;;;;4196261;28;20499;-69
2022/04/11 10:11:26;;;;;;;42.38;33.70;;;33.30;74.70;;;;;;4199901;28;20046;-69
2022/04/11 10:13:35;;;;;;;41.28;34.83;;;33.20;74.90;;;;;;4213200;28;20063;-70
2022/04/11 10:15:43;;;;;;;39.40;35.22;;;33.30;75.10;;;;;;4212953;28;20036;-68
2022/04/11 10:17:50;;;;;;;40.00;35.70;;;33.20;75.30;;;;;;4212726;28;20155;-70
2022/04/11 10:20:00;;;;;;;45.95;39.55;;;33.10;75.50;;;;;;4212718;28;20048;-70
2022/04/11 10:22:18;;;;;;;43.35;37.97;;;33.10;76.50;;;;;;4211765;28;20036;-69
2022/04/11 10:24:38;;;;;;;43.15;37.58;;;33.10;76.70;;;;;;4212728;28;20036;-69
2022/04/11 10:26:53;;;;;;;47.30;39.60;;;33.10;77.00;;;;;;4212560;28;20048;-69
2022/04/11 10:29:00;;;;;;;47.90;39.17;;;33.00;78.00;;;;;;4213054;28;20070;-69
2022/04/11 10:31:11;;;;;;;45.92;39.25;;;33.00;78.60;;;;;;4212325;28;20056;-69
2022/04/11 10:33:17;;;;;;;45.78;39.60;;;32.90;78.80;;;;;;4211096;28;20047;-70
2022/04/11 10:35:44;;;;;;;45.80;40.90;;;32.90;79.20;;;;;;4211585;28;20775;-70
2022/04/11 10:38:06;;;;;;;52.75;42.17;;;32.90;78.90;;;;;;4211826;28;20105;-69
2022/04/11 10:40:34;;;;;;;45.60;40.20;;;32.80;79.00;;;;;;4211167;28;20571;-70
2022/04/11 10:43:02;;;;;;;48.15;41.60;;;32.90;78.70;;;;;;4210337;28;20036;-70
2022/04/11 10:45:11;;;;;;;53.83;42.08;;;32.80;78.50;;;;;;4210171;28;20430;-70
2022/04/11 10:47:31;;;;;;;50.85;42.22;;;32.70;78.70;;;;;;4210126;28;20040;-69